createdAt,value
2022-08-23T00:01:42.557Z,2.17
2022-08-23T00:04:14.021Z,2.75
2022-08-23T00:06:43.000Z,2.75
2022-08-23T00:09:11.420Z,2.40
2022-08-23T00:11:46.083Z,2.22
2022-08-23T00:14:17.910Z,2.00
2022-08-23T00:16:46.065Z,2.28
2022-08-23T00:19:16.942Z,2.20
2022-08-23T00:21:46.590Z,2.13
2022-08-23T00:24:15.332Z,2.00
2022-08-23T00:26:55.556Z,2.40
2022-08-23T00:29:30.691Z,2.20
2022-08-23T00:31:58.707Z,2.50
2022-08-23T00:34:27.373Z,2.58
2022-08-23T00:36:55.753Z,2.50
2022-08-23T00:39:24.812Z,2.42
2022-08-23T00:41:52.972Z,2.83
2022-08-23T00:44:52.704Z,2.90
2022-08-23T00:47:43.883Z,2.30
2022-08-23T00:50:30.320Z,2.70
2022-08-23T00:53:18.738Z,2.50
2022-08-23T00:55:48.126Z,2.28
2022-08-23T00:58:18.651Z,2.47
2022-08-23T01:00:47.995Z,2.50
2022-08-23T01:03:15.934Z,2.15
2022-08-23T01:06:39.561Z,2.65
2022-08-23T01:09:10.154Z,2.30
2022-08-23T01:11:57.724Z,2.72
2022-08-23T01:14:33.412Z,2.22
2022-08-23T01:17:35.976Z,2.38
2022-08-23T01:20:08.597Z,3.00
2022-08-23T01:23:15.694Z,2.60
2022-08-23T01:25:43.571Z,2.70
2022-08-23T01:28:11.888Z,2.60
2022-08-23T01:30:42.292Z,2.40
2022-08-23T01:33:10.803Z,2.75
2022-08-23T01:35:48.486Z,2.70
2022-08-23T01:38:17.213Z,2.30
2022-08-23T01:40:46.616Z,2.83
2022-08-23T01:43:16.042Z,2.63
2022-08-23T01:45:44.170Z,2.67
2022-08-23T01:48:14.129Z,3.10
2022-08-23T01:50:42.277Z,2.53
2022-08-23T01:53:10.494Z,2.63
2022-08-23T01:55:42.703Z,2.80
2022-08-23T01:58:10.926Z,2.90
2022-08-23T02:00:41.451Z,2.92
2022-08-23T02:03:10.261Z,2.63
2022-08-23T02:05:39.178Z,2.83
2022-08-23T02:08:27.419Z,2.40
2022-08-23T02:10:56.974Z,2.95
2022-08-23T02:13:27.374Z,2.50
2022-08-23T02:15:58.618Z,2.50
2022-08-23T02:18:26.944Z,2.95
2022-08-23T02:20:54.845Z,3.10
2022-08-23T02:23:23.708Z,3.10
2022-08-23T02:25:52.244Z,2.88
2022-08-23T02:28:21.783Z,2.85
2022-08-23T02:30:50.146Z,2.78
2022-08-23T02:33:18.168Z,2.85
2022-08-23T02:35:46.277Z,2.88
2022-08-23T02:38:14.425Z,3.08
2022-08-23T02:40:42.884Z,2.72
2022-08-23T02:43:11.549Z,2.67
2022-08-23T02:45:39.877Z,2.40
2022-08-23T02:48:08.758Z,2.70
2022-08-23T02:50:47.025Z,2.97
2022-08-23T02:53:14.904Z,2.88
2022-08-23T02:55:46.966Z,2.97
2022-08-23T02:58:15.026Z,3.05
2022-08-23T03:00:46.459Z,3.05
2022-08-23T03:03:14.845Z,3.35
2022-08-23T03:05:43.821Z,2.80
2022-08-23T03:08:12.277Z,3.28
2022-08-23T03:10:48.554Z,3.17
2022-08-23T03:13:17.266Z,2.88
2022-08-23T03:15:48.771Z,2.90
2022-08-23T03:18:17.643Z,3.63
2022-08-23T03:20:46.800Z,3.10
2022-08-23T03:23:15.103Z,3.22
2022-08-23T03:25:42.976Z,3.42
2022-08-23T03:28:31.098Z,2.90
2022-08-23T03:30:59.424Z,3.20
2022-08-23T03:33:27.793Z,3.38
2022-08-23T03:36:02.972Z,3.00
2022-08-23T03:38:31.547Z,3.40
2022-08-23T03:41:00.676Z,3.25
2022-08-23T03:43:29.165Z,3.13
2022-08-23T03:45:57.213Z,3.40
2022-08-23T03:48:25.371Z,3.42
2022-08-23T03:50:54.702Z,3.35
2022-08-23T03:53:24.337Z,2.92
2022-08-23T03:55:55.557Z,3.03
2022-08-23T03:58:23.853Z,3.05
2022-08-23T04:00:51.757Z,3.25
2022-08-23T04:03:19.371Z,3.67
2022-08-23T04:06:04.806Z,3.45
2022-08-23T04:08:34.572Z,3.55
2022-08-23T04:11:05.018Z,3.73
2022-08-23T04:13:33.554Z,3.65
2022-08-23T04:16:05.188Z,3.50
2022-08-23T04:18:34.224Z,3.75
2022-08-23T04:21:10.738Z,3.45
2022-08-23T04:23:39.948Z,3.63
2022-08-23T04:26:09.956Z,4.82
2022-08-23T04:28:39.173Z,2.95
2022-08-23T04:31:07.213Z,3.60
2022-08-23T04:33:35.948Z,3.65
2022-08-23T04:36:09.751Z,3.38
2022-08-23T04:38:37.859Z,3.63
2022-08-23T04:41:25.927Z,3.63
2022-08-23T04:43:57.114Z,3.38
2022-08-23T04:46:29.781Z,3.95
2022-08-23T04:49:00.881Z,3.67
2022-08-23T04:51:29.528Z,3.72
2022-08-23T04:53:57.359Z,3.90
2022-08-23T04:56:50.885Z,3.80
2022-08-23T04:59:21.037Z,4.20
2022-08-23T05:01:50.112Z,4.15
2022-08-23T05:04:18.181Z,3.58
2022-08-23T05:06:46.752Z,4.20
2022-08-23T05:09:19.832Z,4.10
2022-08-23T05:11:49.642Z,4.18
2022-08-23T05:14:18.416Z,3.92
2022-08-23T05:16:46.747Z,4.10
2022-08-23T05:19:15.000Z,4.20
2022-08-23T05:21:45.568Z,3.70
2022-08-23T05:24:14.015Z,4.50
2022-08-23T05:26:43.740Z,3.67
2022-08-23T05:29:11.549Z,3.38
2022-08-23T05:31:46.347Z,4.32
2022-08-23T05:34:22.515Z,4.10
2022-08-23T05:36:56.623Z,4.20
2022-08-23T05:39:36.988Z,4.40
2022-08-23T05:42:13.371Z,4.00
2022-08-23T05:44:41.481Z,4.00
2022-08-23T05:47:13.491Z,4.40
2022-08-23T05:50:02.051Z,4.15
2022-08-23T05:52:33.314Z,4.13
2022-08-23T05:55:01.090Z,4.00
2022-08-23T05:57:41.030Z,4.38
2022-08-23T06:00:14.506Z,4.32
2022-08-23T06:02:50.661Z,4.35
2022-08-23T06:05:20.689Z,4.57
2022-08-23T06:07:52.015Z,4.97
2022-08-23T06:10:22.361Z,4.22
2022-08-23T06:12:59.157Z,4.18
2022-08-23T06:15:26.616Z,4.43
2022-08-23T06:17:54.154Z,3.95
2022-08-23T06:20:21.795Z,4.10
2022-08-23T06:22:58.377Z,4.10
2022-08-23T06:25:25.899Z,3.70
2022-08-23T06:28:00.077Z,3.90
2022-08-23T06:30:30.417Z,3.67
2022-08-23T06:33:05.038Z,3.75
2022-08-23T06:35:39.943Z,3.70
2022-08-23T06:38:15.899Z,3.35
2022-08-23T06:41:08.311Z,3.05
2022-08-23T06:44:01.751Z,2.58
2022-08-23T06:46:34.335Z,3.00
2022-08-23T06:49:05.530Z,2.83
2022-08-23T06:51:43.598Z,2.80
2022-08-23T06:54:26.474Z,2.75
2022-08-23T06:57:09.426Z,2.53
2022-08-23T06:59:56.912Z,2.50
2022-08-23T07:02:45.869Z,2.22
2022-08-23T07:05:36.164Z,2.30
2022-08-23T07:08:17.899Z,2.03
2022-08-23T07:10:45.521Z,2.45
2022-08-23T07:13:16.924Z,2.30
2022-08-23T07:15:50.242Z,2.15
2022-08-23T07:18:20.296Z,2.10
2022-08-23T07:20:47.744Z,2.08
2022-08-23T07:23:15.996Z,2.10
2022-08-23T07:25:44.121Z,1.90
2022-08-23T07:28:16.590Z,1.88
2022-08-23T07:30:45.474Z,2.08
2022-08-23T07:33:14.923Z,1.90
2022-08-23T07:36:09.910Z,1.90
2022-08-23T07:38:39.640Z,1.88
2022-08-23T07:41:07.725Z,2.20
2022-08-23T07:43:36.177Z,1.70
2022-08-23T07:46:04.406Z,1.63
2022-08-23T07:48:52.948Z,1.98
2022-08-23T07:51:27.355Z,1.60
2022-08-23T07:53:55.629Z,1.75
2022-08-23T07:56:23.846Z,1.65
2022-08-23T07:59:10.960Z,1.80
2022-08-23T08:01:57.331Z,2.30
2022-08-23T08:04:26.073Z,1.98
2022-08-23T08:07:16.960Z,1.60
2022-08-23T08:12:12.923Z,1.70
2022-08-23T08:14:43.459Z,2.08
2022-08-23T08:17:13.738Z,5.10
2022-08-23T08:20:00.151Z,1.40
2022-08-23T08:22:59.079Z,1.65
2022-08-23T08:26:02.717Z,1.20
2022-08-23T08:28:31.880Z,1.40
2022-08-23T08:30:59.992Z,1.60
2022-08-23T08:33:30.934Z,1.63
2022-08-23T08:36:09.063Z,1.50
2022-08-23T08:38:48.082Z,1.55
2022-08-23T08:41:44.236Z,1.15
2022-08-23T08:44:31.153Z,1.55
2022-08-23T08:46:59.564Z,1.27
2022-08-23T08:49:44.884Z,1.60
2022-08-23T08:52:20.697Z,1.70
2022-08-23T08:54:53.257Z,1.42
2022-08-23T08:57:27.706Z,1.23
2022-08-23T09:00:15.032Z,1.35
2022-08-23T09:02:45.602Z,1.30
2022-08-23T09:05:39.939Z,1.17
2022-08-23T09:08:37.480Z,1.33
2022-08-23T09:11:23.783Z,1.30
2022-08-23T09:14:30.350Z,1.40
2022-08-23T09:17:14.651Z,1.38
2022-08-23T09:19:42.880Z,1.10
2022-08-23T09:22:19.571Z,0.98
2022-08-23T09:24:46.871Z,1.10
2022-08-23T09:27:21.905Z,1.00
2022-08-23T09:30:01.370Z,0.85
2022-08-23T09:32:42.285Z,1.58
2022-08-23T09:35:21.862Z,1.00
2022-08-23T09:38:03.865Z,1.13
2022-08-23T09:40:45.637Z,1.10
2022-08-23T09:43:19.484Z,1.00
2022-08-23T09:45:50.024Z,1.40
2022-08-23T09:48:41.354Z,1.05
2022-08-23T09:51:26.304Z,0.90
2022-08-23T09:54:34.163Z,1.20
2022-08-23T09:57:09.849Z,1.20
2022-08-23T09:59:51.975Z,1.10
2022-08-23T10:02:35.436Z,1.10
2022-08-23T10:05:39.291Z,1.30
2022-08-23T10:08:23.527Z,1.40
2022-08-23T10:11:03.294Z,1.30
2022-08-23T10:13:33.706Z,1.20
2022-08-23T10:16:10.439Z,0.75
2022-08-23T10:19:18.332Z,1.00
2022-08-23T10:22:14.824Z,1.17
2022-08-23T10:25:00.709Z,1.00
2022-08-23T10:28:11.377Z,1.10
2022-08-23T10:31:11.435Z,0.90
2022-08-23T10:34:21.245Z,0.90
2022-08-23T10:37:17.381Z,0.90
2022-08-23T10:40:16.233Z,0.75
2022-08-23T10:43:09.675Z,0.88
2022-08-23T10:45:41.885Z,1.10
2022-08-23T10:48:29.925Z,1.00
2022-08-23T10:51:22.634Z,1.00
2022-08-23T10:54:10.363Z,0.88
2022-08-23T10:56:44.456Z,1.15
2022-08-23T10:59:24.491Z,1.08
2022-08-23T11:02:12.663Z,0.80
2022-08-23T11:04:49.473Z,1.23
2022-08-23T11:07:38.093Z,0.68
2022-08-23T11:10:26.830Z,1.00
2022-08-23T11:13:15.934Z,0.70
2022-08-23T11:16:13.665Z,0.63
2022-08-23T11:18:50.825Z,0.70
2022-08-23T11:21:31.220Z,0.70
2022-08-23T11:24:03.183Z,1.20
2022-08-23T11:26:36.353Z,0.70
2022-08-23T11:29:07.029Z,0.80
2022-08-23T11:32:00.888Z,0.55
2022-08-23T11:34:33.947Z,0.82
2022-08-23T11:37:30.954Z,0.77
2022-08-23T11:40:08.984Z,0.80
2022-08-23T11:42:37.859Z,0.80
2022-08-23T11:45:24.028Z,0.77
2022-08-23T11:48:14.257Z,0.95
2022-08-23T11:51:22.174Z,1.00
2022-08-23T11:53:58.167Z,0.90
2022-08-23T11:57:15.525Z,0.70
2022-08-23T12:00:06.065Z,0.82
2022-08-23T12:02:39.104Z,0.63
2022-08-23T12:05:32.535Z,1.00
2022-08-23T12:08:03.415Z,0.63
2022-08-23T12:10:43.177Z,0.88
2022-08-23T12:13:22.604Z,0.75
2022-08-23T12:16:24.285Z,0.90
2022-08-23T12:18:53.576Z,0.60
2022-08-23T12:21:51.555Z,0.80
2022-08-23T12:24:47.383Z,0.60
2022-08-23T12:27:59.284Z,0.77
2022-08-23T12:30:42.893Z,0.70
2022-08-23T12:33:36.905Z,1.00
2022-08-23T12:36:33.864Z,0.60
2022-08-23T12:39:09.169Z,0.80
2022-08-23T12:42:14.032Z,0.70
2022-08-23T12:44:46.873Z,0.70
2022-08-23T12:47:21.263Z,0.57
2022-08-23T12:50:02.001Z,0.63
2022-08-23T12:52:35.134Z,0.70
2022-08-23T12:55:03.336Z,0.68
2022-08-23T12:57:42.479Z,0.50
2022-08-23T13:00:33.840Z,0.80
2022-08-23T13:03:06.429Z,0.85
2022-08-23T13:05:49.397Z,0.80
2022-08-23T13:08:35.244Z,0.68
2022-08-23T13:11:08.689Z,0.90
2022-08-23T13:13:42.959Z,0.45
2022-08-23T13:16:42.414Z,1.23
2022-08-23T13:19:33.970Z,0.80
2022-08-23T13:22:29.824Z,0.50
2022-08-23T13:25:39.565Z,0.80
2022-08-23T13:31:11.265Z,0.52
2022-08-23T13:33:40.933Z,0.90
2022-08-23T13:36:13.363Z,0.82
2022-08-23T13:38:43.579Z,0.68
2022-08-23T13:41:38.988Z,1.48
2022-08-23T13:44:12.744Z,0.80
2022-08-23T13:46:48.178Z,0.75
2022-08-23T13:49:28.714Z,0.70
2022-08-23T13:54:52.939Z,1.00
2022-08-23T13:57:22.308Z,1.30
2022-08-23T13:59:54.896Z,0.75
2022-08-23T14:02:24.345Z,0.70
2022-08-23T14:04:52.516Z,0.80
2022-08-23T14:07:20.424Z,0.75
2022-08-23T14:09:50.994Z,0.80
2022-08-23T14:12:27.740Z,0.60
2022-08-23T14:14:57.390Z,0.85
2022-08-23T14:17:25.342Z,0.75
2022-08-23T14:22:41.261Z,0.90
2022-08-23T14:25:10.734Z,0.80
2022-08-23T14:27:41.548Z,0.70
2022-08-23T14:30:16.812Z,0.80
2022-08-23T14:32:44.445Z,0.90
2022-08-23T14:35:11.897Z,0.73
2022-08-23T14:40:27.250Z,0.82
2022-08-23T14:42:55.258Z,0.85
2022-08-23T14:45:22.984Z,0.88
2022-08-23T14:47:50.756Z,0.90
2022-08-23T14:50:18.304Z,1.98
2022-08-23T14:52:47.687Z,0.90
2022-08-23T14:55:15.863Z,0.60
2022-08-23T14:57:44.140Z,1.20
2022-08-23T15:00:14.986Z,0.80
2022-08-23T15:02:47.217Z,0.82
2022-08-23T15:05:15.940Z,0.82
2022-08-23T15:07:43.932Z,0.80
2022-08-23T15:10:49.719Z,0.88
2022-08-23T15:13:19.160Z,1.17
2022-08-23T15:15:49.282Z,0.80
2022-08-23T15:18:18.273Z,1.05
2022-08-23T15:20:46.235Z,1.20
2022-08-23T15:23:14.484Z,0.85
2022-08-23T15:25:44.066Z,0.82
2022-08-23T15:28:16.531Z,0.80
2022-08-23T15:30:45.819Z,1.10
2022-08-23T15:33:13.798Z,0.65
2022-08-23T15:35:49.926Z,0.77
2022-08-23T15:38:20.538Z,1.00
2022-08-23T15:40:51.607Z,0.85
2022-08-23T15:43:20.729Z,0.77
2022-08-23T16:15:24.146Z,0.80
2022-08-23T16:17:51.527Z,0.60
2022-08-23T16:20:18.926Z,0.90
2022-08-23T16:22:46.352Z,0.82
2022-08-23T16:25:13.958Z,0.90
2022-08-23T16:27:41.734Z,0.63
2022-08-23T16:30:12.574Z,0.90
2022-08-23T16:32:41.218Z,1.02
2022-08-23T16:35:09.818Z,0.80
2022-08-23T16:37:37.149Z,0.73
2022-08-23T16:40:09.882Z,0.90
2022-08-23T16:42:37.414Z,0.70
2022-08-23T16:45:05.664Z,1.00
2022-08-23T16:47:40.335Z,0.80
2022-08-23T16:50:09.650Z,0.90
2022-08-23T16:52:37.919Z,0.90
2022-08-23T16:55:09.941Z,0.98
2022-08-23T16:57:37.662Z,0.70
2022-08-23T17:00:08.214Z,0.82
2022-08-23T17:05:13.501Z,0.60
2022-08-23T17:07:41.216Z,1.08
2022-08-23T17:10:11.107Z,1.30
2022-08-23T17:12:46.912Z,1.00
2022-08-23T17:15:20.397Z,0.90
2022-08-23T17:17:49.171Z,0.80
2022-08-23T17:20:19.423Z,1.38
2022-08-23T17:22:47.854Z,0.95
2022-08-23T17:25:17.209Z,0.80
2022-08-23T17:27:46.515Z,0.80
2022-08-23T17:30:18.254Z,0.90
2022-08-23T17:32:49.653Z,0.88
2022-08-23T17:35:22.184Z,1.00
2022-08-23T17:37:49.802Z,0.85
2022-08-23T17:40:35.240Z,0.90
2022-08-23T17:43:03.720Z,0.60
2022-08-23T17:45:46.563Z,1.13
2022-08-23T17:48:16.856Z,0.90
2022-08-23T17:50:46.421Z,1.55
2022-08-23T17:53:15.752Z,0.93
2022-08-23T17:55:44.248Z,0.93
2022-08-23T17:58:13.668Z,1.00
2022-08-23T18:00:41.279Z,1.17
2022-08-23T18:03:08.884Z,1.00
2022-08-23T18:05:40.184Z,0.80
2022-08-23T18:08:08.646Z,0.80
2022-08-23T18:10:37.143Z,1.98
2022-08-23T18:13:05.450Z,0.98
2022-08-23T18:15:33.147Z,1.40
2022-08-23T18:18:02.621Z,1.05
2022-08-23T18:20:30.970Z,1.73
2022-08-23T18:22:59.548Z,0.90
2022-08-23T18:25:28.064Z,0.90
2022-08-23T18:28:07.086Z,1.10
2022-08-23T18:30:47.078Z,1.00
2022-08-23T18:33:15.929Z,1.00
2022-08-23T18:35:47.130Z,1.05
2022-08-23T18:38:15.226Z,1.17
2022-08-23T18:40:48.004Z,1.30
2022-08-23T18:43:27.188Z,1.63
2022-08-23T18:46:05.899Z,1.00
2022-08-23T18:48:34.405Z,1.08
2022-08-23T18:51:03.583Z,1.17
2022-08-23T18:53:31.997Z,1.02
2022-08-23T18:55:59.481Z,0.90
2022-08-23T18:58:27.831Z,1.10
2022-08-23T19:00:56.846Z,1.05
2022-08-23T19:03:24.478Z,1.17
2022-08-23T19:05:52.492Z,1.08
2022-08-23T19:08:20.308Z,1.38
2022-08-23T19:10:48.055Z,1.38
2022-08-23T19:13:16.021Z,1.00
2022-08-23T19:15:43.749Z,1.17
2022-08-23T19:18:11.362Z,1.00
2022-08-23T19:20:39.103Z,1.10
2022-08-23T19:23:06.720Z,1.20
2022-08-23T19:25:37.298Z,1.00
2022-08-23T19:28:06.364Z,1.17
2022-08-23T19:30:33.990Z,1.23
2022-08-23T19:33:01.693Z,1.00
2022-08-23T19:40:05.598Z,0.85
2022-08-23T19:47:35.167Z,0.95
2022-08-23T19:50:05.247Z,1.10
2022-08-23T19:52:33.642Z,1.30
2022-08-23T19:55:05.352Z,1.27
2022-08-23T19:57:35.393Z,0.90
2022-08-23T20:00:10.531Z,1.20
2022-08-23T20:02:38.136Z,1.15
2022-08-23T20:05:07.083Z,1.05
2022-08-23T20:07:36.362Z,1.30
2022-08-23T20:10:06.077Z,1.08
2022-08-23T20:12:34.084Z,1.13
2022-08-23T20:15:02.602Z,1.25
2022-08-23T20:17:30.262Z,1.13
2022-08-23T20:19:58.268Z,1.05
2022-08-23T20:22:44.538Z,1.20
2022-08-23T20:25:12.120Z,1.40
2022-08-23T20:27:39.651Z,1.38
2022-08-23T20:30:08.938Z,1.27
2022-08-23T20:32:37.620Z,1.83
2022-08-23T20:35:08.387Z,1.05
2022-08-23T20:37:36.203Z,1.77
2022-08-23T20:40:06.203Z,1.20
2022-08-23T20:42:33.698Z,1.15
2022-08-23T20:45:05.933Z,1.35
2022-08-23T20:47:33.808Z,1.50
2022-08-23T20:50:01.530Z,1.10
2022-08-23T20:52:34.024Z,1.33
2022-08-23T20:55:02.873Z,1.05
2022-08-23T20:57:31.975Z,1.20
2022-08-23T21:00:08.357Z,1.27
2022-08-23T21:02:35.916Z,1.30
2022-08-23T21:05:04.704Z,1.40
2022-08-23T21:07:34.490Z,1.70
2022-08-23T21:10:05.144Z,1.10
2022-08-23T21:12:32.702Z,1.27
2022-08-23T21:15:00.319Z,1.40
2022-08-23T21:17:27.945Z,1.52
2022-08-23T21:19:55.479Z,1.90
2022-08-23T21:22:23.158Z,1.40
2022-08-23T21:24:59.575Z,1.15
2022-08-23T21:27:27.816Z,1.30
2022-08-23T21:29:55.379Z,1.77
2022-08-23T21:32:23.688Z,1.40
2022-08-23T21:34:51.238Z,1.30
2022-08-23T21:37:18.932Z,1.60
2022-08-23T21:39:46.586Z,1.50
2022-08-23T21:42:15.444Z,1.30
2022-08-23T21:44:43.582Z,1.25
2022-08-23T21:47:11.335Z,1.35
2022-08-23T21:49:39.274Z,1.50
2022-08-23T21:52:07.814Z,1.40
2022-08-23T21:54:36.199Z,1.38
2022-08-23T21:57:05.461Z,1.50
2022-08-23T21:59:33.243Z,1.13
2022-08-23T22:02:00.823Z,1.20
2022-08-23T22:04:28.454Z,1.10
2022-08-23T22:06:59.939Z,1.60
2022-08-23T22:09:31.550Z,1.35
2022-08-23T22:12:34.319Z,1.20
2022-08-23T22:15:02.121Z,1.40
2022-08-23T22:17:29.958Z,1.70
2022-08-23T22:19:57.759Z,1.30
2022-08-23T22:22:25.346Z,1.33
2022-08-23T22:24:54.203Z,1.60
2022-08-23T22:27:21.792Z,1.50
2022-08-23T22:29:49.309Z,1.20
2022-08-23T22:32:16.979Z,1.45
2022-08-23T22:34:44.651Z,1.30
2022-08-23T22:37:12.525Z,1.58
2022-08-23T22:39:40.079Z,1.85
2022-08-23T22:42:09.393Z,1.48
2022-08-23T22:44:37.770Z,1.10
2022-08-23T22:47:05.662Z,1.50
2022-08-23T22:49:33.307Z,1.35
2022-08-23T22:52:01.125Z,1.40
2022-08-23T22:54:29.031Z,1.35
2022-08-23T22:56:56.632Z,1.38
2022-08-23T22:59:32.768Z,1.40
2022-08-23T23:02:03.243Z,1.50
2022-08-23T23:04:32.629Z,1.48
2022-08-23T23:07:00.545Z,1.38
2022-08-23T23:09:28.551Z,1.50
2022-08-23T23:11:56.651Z,1.40
2022-08-23T23:14:24.446Z,1.38
2022-08-23T23:16:53.533Z,1.50
2022-08-23T23:19:39.680Z,1.67
2022-08-23T23:22:09.361Z,1.80
2022-08-23T23:24:40.246Z,1.60
2022-08-23T23:27:08.494Z,1.40
2022-08-23T23:29:36.772Z,1.55
2022-08-23T23:32:05.264Z,1.58
2022-08-23T23:34:32.860Z,1.55
2022-08-23T23:37:00.638Z,1.30
2022-08-23T23:39:29.182Z,1.50
2022-08-23T23:41:57.567Z,1.27
2022-08-23T23:44:29.928Z,1.80
2022-08-23T23:47:01.560Z,1.58
2022-08-23T23:49:32.636Z,1.33
2022-08-23T23:52:06.036Z,1.70
2022-08-23T23:54:35.914Z,1.52
2022-08-23T23:57:44.577Z,1.42
